Time;durP1;ratioP1;P1;durP2;ratioP2;P2;SDS_P1;SDS_P2;PMS_P1;PMS_P2;Temp;Humidity;BMP_temperature;BMP_pressure;BME280_temperature;BME280_humidity;BME280_pressure;Samples;Min_cycle;Max_cycle;Signal;HPM_P1;HPM_P2
2023/04/15 00:01:59;;;;;;;2.87;1.60;;;9.80;99.90;;;;;;5074625;28;20518;-73
2023/04/15 00:04:27;;;;;;;3.97;1.90;;;9.90;99.90;;;;;;5068519;28;20020;-76
2023/04/15 00:06:53;;;;;;;5.90;2.75;;;10.00;99.90;;;;;;5069519;28;20263;-72
2023/04/15 00:09:19;;;;;;;8.05;3.17;;;10.00;99.90;;;;;;5070987;28;20062;-76
2023/04/15 00:11:45;;;;;;;7.30;2.55;;;10.10;99.90;;;;;;5069797;28;20119;-75
2023/04/15 00:14:14;;;;;;;4.00;2.77;;;10.00;99.90;;;;;;5066510;28;20218;-76
2023/04/15 00:16:40;;;;;;;5.90;3.42;;;10.00;99.90;;;;;;5068812;28;20027;-74
2023/04/15 00:19:05;;;;;;;10.33;3.67;;;10.00;99.90;;;;;;5067717;28;20044;-73
2023/04/15 00:21:31;;;;;;;13.63;4.70;;;10.00;99.90;;;;;;5071259;28;20633;-73
2023/04/15 00:23:57;;;;;;;5.63;3.43;;;10.10;99.90;;;;;;5068485;28;20083;-73
2023/04/15 00:26:22;;;;;;;5.83;3.63;;;10.10;99.90;;;;;;5069112;28;20131;-73
2023/04/15 00:28:49;;;;;;;9.03;3.50;;;10.00;99.90;;;;;;5079002;28;20028;-69
2023/04/15 00:31:15;;;;;;;7.05;4.82;;;10.00;99.90;;;;;;5078761;28;20033;-71
2023/04/15 00:33:40;;;;;;;10.00;4.25;;;10.00;99.90;;;;;;5071579;28;20059;-73
2023/04/15 00:36:07;;;;;;;8.57;4.15;;;10.00;99.90;;;;;;5068315;28;20037;-71
2023/04/15 00:38:33;;;;;;;;;;;10.00;99.90;;;;;;5051990;28;20036;-71
2023/04/15 00:40:58;;;;;;;6.97;3.15;;;9.70;99.90;;;;;;5067423;28;19904;-72
2023/04/15 00:43:25;;;;;;;9.52;3.60;;;9.70;99.90;;;;;;5072247;28;20036;-72
2023/04/15 00:45:53;;;;;;;4.50;3.13;;;9.60;99.90;;;;;;5068431;28;20040;-70
2023/04/15 00:48:19;;;;;;;4.28;2.38;;;9.60;99.90;;;;;;5074408;28;20040;-70
2023/04/15 00:50:45;;;;;;;5.28;2.90;;;9.60;99.90;;;;;;5068918;28;20031;-72
2023/04/15 00:53:11;;;;;;;5.67;2.40;;;9.60;99.90;;;;;;5070983;28;20344;-71
2023/04/15 00:55:37;;;;;;;9.65;2.00;;;9.40;99.90;;;;;;5068618;28;20094;-72
2023/04/15 00:58:02;;;;;;;2.80;2.22;;;9.40;99.90;;;;;;5066911;28;20408;-72
2023/04/15 01:00:29;;;;;;;3.90;2.40;;;9.60;99.90;;;;;;5070251;28;20024;-74
2023/04/15 01:02:54;;;;;;;5.93;2.13;;;9.60;99.90;;;;;;5067826;28;20028;-73
2023/04/15 01:05:20;;;;;;;5.63;2.20;;;9.50;99.90;;;;;;5068792;28;20041;-73
2023/04/15 01:07:47;;;;;;;5.22;2.00;;;9.50;99.90;;;;;;5048038;28;20029;-72
2023/04/15 01:10:13;;;;;;;3.13;2.05;;;9.40;99.90;;;;;;5049503;28;20044;-72
2023/04/15 01:12:39;;;;;;;4.43;1.95;;;9.40;99.90;;;;;;5067404;28;20036;-71
2023/04/15 01:15:05;;;;;;;4.97;2.03;;;9.40;99.90;;;;;;5068775;28;20714;-73
2023/04/15 01:17:31;;;;;;;4.95;1.85;;;9.40;99.90;;;;;;5067337;28;20024;-73
2023/04/15 01:19:57;;;;;;;4.10;2.30;;;9.30;99.90;;;;;;5052134;28;20044;-75
2023/04/15 01:22:25;;;;;;;6.87;2.47;;;9.40;99.90;;;;;;5068145;28;20560;-72
2023/04/15 01:25:01;;;;;;;5.28;2.15;;;9.30;99.90;;;;;;5069256;28;20287;-73
2023/04/15 01:27:29;;;;;;;5.63;1.80;;;9.20;99.90;;;;;;5068953;28;20581;-72
2023/04/15 01:29:54;;;;;;;3.83;1.92;;;9.20;99.90;;;;;;5066158;28;20124;-71
2023/04/15 01:32:20;;;;;;;3.63;1.83;;;9.30;99.90;;;;;;5069309;28;20697;-70
2023/04/15 01:34:45;;;;;;;5.37;1.70;;;9.30;99.90;;;;;;5066187;28;20043;-74
2023/04/15 01:37:11;;;;;;;2.77;1.87;;;9.40;99.90;;;;;;5065510;28;20025;-71
2023/04/15 01:39:37;;;;;;;6.03;1.57;;;9.40;99.90;;;;;;5073313;28;20192;-74
2023/04/15 01:42:03;;;;;;;3.30;1.47;;;9.40;99.90;;;;;;5070962;28;20081;-72
2023/04/15 01:44:28;;;;;;;4.53;2.00;;;9.20;99.90;;;;;;5075277;28;20463;-73
2023/04/15 01:46:54;;;;;;;11.20;2.30;;;9.20;99.90;;;;;;5069342;28;20105;-71
2023/04/15 01:49:19;;;;;;;3.03;1.67;;;9.30;99.90;;;;;;5071716;28;20020;-72
2023/04/15 01:51:45;;;;;;;5.33;1.33;;;9.30;99.90;;;;;;5070343;28;20031;-73
2023/04/15 01:54:10;;;;;;;3.37;1.83;;;9.40;99.90;;;;;;5070424;28;20041;-72
2023/04/15 01:56:36;;;;;;;2.10;1.27;;;9.40;99.90;;;;;;5071814;28;20496;-73
2023/04/15 01:59:02;;;;;;;4.57;1.90;;;9.40;99.90;;;;;;5072349;28;20029;-73
2023/04/15 02:01:28;;;;;;;3.30;1.50;;;9.30;99.90;;;;;;5073052;28;20391;-72
2023/04/15 02:03:54;;;;;;;3.67;1.45;;;9.30;99.90;;;;;;5070684;28;20040;-73
2023/04/15 02:06:19;;;;;;;2.37;1.30;;;9.30;99.90;;;;;;5079256;28;20032;-74
2023/04/15 02:08:45;;;;;;;4.00;1.73;;;9.30;99.90;;;;;;5067685;28;20154;-72
2023/04/15 02:11:11;;;;;;;2.90;1.60;;;9.20;99.90;;;;;;5070728;28;20111;-74
2023/04/15 02:13:36;;;;;;;4.00;1.93;;;9.00;99.90;;;;;;5072313;28;20044;-74
2023/04/15 02:16:02;;;;;;;4.80;1.73;;;9.00;99.90;;;;;;5075652;28;20031;-72
2023/04/15 02:18:28;;;;;;;3.75;1.55;;;9.00;99.90;;;;;;5079684;28;20039;-72
2023/04/15 02:20:56;;;;;;;4.30;1.30;;;9.00;99.90;;;;;;5080424;28;20055;-73
2023/04/15 02:23:21;;;;;;;3.15;1.45;;;9.00;99.90;;;;;;5073560;28;20041;-74
2023/04/15 02:25:47;;;;;;;4.27;1.60;;;9.10;99.90;;;;;;5072623;28;20024;-73
2023/04/15 02:28:12;;;;;;;4.50;2.20;;;9.10;99.90;;;;;;5071346;28;20563;-74
2023/04/15 02:30:39;;;;;;;5.70;2.10;;;9.10;99.90;;;;;;5073911;28;20031;-73
2023/04/15 02:33:06;;;;;;;3.40;1.75;;;9.10;99.90;;;;;;5071753;28;20829;-74
2023/04/15 02:35:32;;;;;;;3.20;1.70;;;9.20;99.90;;;;;;5071480;28;20572;-76
2023/04/15 02:37:57;;;;;;;4.17;1.83;;;9.20;99.90;;;;;;5072293;28;20107;-73
2023/04/15 02:40:23;;;;;;;2.93;1.37;;;9.20;99.90;;;;;;5069923;28;20029;-73
2023/04/15 02:42:49;;;;;;;3.63;1.73;;;9.10;99.90;;;;;;5076207;28;20070;-73
2023/04/15 02:45:15;;;;;;;5.20;1.90;;;9.10;99.90;;;;;;5075316;28;20050;-75
2023/04/15 02:47:40;;;;;;;3.03;1.70;;;9.10;99.90;;;;;;5070804;28;20082;-74
2023/04/15 02:50:08;;;;;;;2.87;1.57;;;9.10;99.90;;;;;;5075210;28;20043;-72
2023/04/15 02:52:34;;;;;;;2.88;1.80;;;9.20;99.90;;;;;;5073832;28;20036;-74
2023/04/15 02:55:01;;;;;;;7.18;1.95;;;9.20;99.90;;;;;;5051976;28;20089;-73
2023/04/15 02:57:32;;;;;;;5.78;1.60;;;9.30;99.90;;;;;;5070166;28;20035;-73
2023/04/15 02:59:57;;;;;;;1.33;1.00;;;9.20;99.90;;;;;;5071445;28;20415;-73
2023/04/15 03:02:23;;;;;;;5.17;1.27;;;9.30;99.90;;;;;;5074424;28;20020;-73
2023/04/15 03:04:49;;;;;;;2.13;1.27;;;9.30;99.90;;;;;;5069239;28;22009;-72
2023/04/15 03:07:14;;;;;;;4.97;1.40;;;9.30;99.90;;;;;;5072811;28;20488;-75
2023/04/15 03:09:40;;;;;;;4.67;1.43;;;9.30;99.90;;;;;;5070885;28;20136;-73
2023/04/15 03:12:06;;;;;;;3.77;1.30;;;9.30;99.90;;;;;;5070446;28;20029;-74
2023/04/15 03:14:32;;;;;;;3.00;1.50;;;9.30;99.90;;;;;;5075099;28;20089;-75
2023/04/15 03:16:58;;;;;;;8.53;1.57;;;9.30;99.90;;;;;;5070720;28;20024;-73
2023/04/15 03:19:24;;;;;;;4.05;1.25;;;9.20;99.90;;;;;;5069484;28;20036;-72
2023/04/15 03:21:50;;;;;;;3.53;1.67;;;9.20;99.90;;;;;;5068479;28;20039;-73
2023/04/15 03:24:16;;;;;;;1.42;0.90;;;9.10;99.90;;;;;;5070457;28;20035;-72
2023/04/15 03:26:42;;;;;;;2.88;1.33;;;9.20;99.90;;;;;;5069994;28;20036;-72
2023/04/15 03:29:08;;;;;;;3.05;1.10;;;9.20;99.90;;;;;;5069706;28;20433;-73
2023/04/15 03:31:33;;;;;;;2.93;1.37;;;9.20;99.90;;;;;;5068014;28;20032;-73
2023/04/15 03:33:59;;;;;;;2.27;1.10;;;9.20;99.90;;;;;;5071131;28;20759;-72
2023/04/15 03:36:25;;;;;;;1.67;1.00;;;9.30;99.90;;;;;;5069859;28;20024;-74
2023/04/15 03:38:50;;;;;;;2.30;1.00;;;9.30;99.90;;;;;;5067694;28;20028;-72
2023/04/15 03:41:16;;;;;;;1.57;1.00;;;9.40;99.90;;;;;;5068332;28;20530;-71
2023/04/15 03:43:41;;;;;;;2.60;1.30;;;9.40;99.90;;;;;;5068711;28;20029;-72
2023/04/15 03:46:07;;;;;;;2.47;1.00;;;9.40;99.90;;;;;;5070179;28;20029;-74
2023/04/15 03:48:33;;;;;;;1.13;0.90;;;9.40;99.90;;;;;;5076119;28;20028;-77
2023/04/15 03:50:58;;;;;;;2.40;1.00;;;9.40;99.90;;;;;;5067605;28;20105;-71
2023/04/15 03:53:24;;;;;;;3.70;0.87;;;9.50;99.90;;;;;;5068785;28;20037;-74
2023/04/15 03:55:49;;;;;;;2.67;1.10;;;9.50;99.90;;;;;;5071584;28;20507;-74
2023/04/15 03:58:15;;;;;;;4.40;1.00;;;9.50;99.90;;;;;;5069811;28;20057;-72
2023/04/15 04:00:41;;;;;;;6.20;1.70;;;9.40;99.90;;;;;;5068802;28;20783;-72
2023/04/15 04:03:07;;;;;;;4.25;1.23;;;9.40;99.90;;;;;;5074053;28;20024;-72
2023/04/15 04:05:32;;;;;;;1.53;0.93;;;9.50;99.90;;;;;;5080747;28;20066;-72
2023/04/15 04:07:59;;;;;;;4.18;1.05;;;9.40;99.90;;;;;;5074465;28;20036;-73
2023/04/15 04:10:26;;;;;;;5.75;2.28;;;9.40;99.90;;;;;;5069670;28;20036;-73
2023/04/15 04:12:51;;;;;;;2.13;1.00;;;9.50;99.90;;;;;;5070643;28;20043;-72
2023/04/15 04:15:17;;;;;;;1.97;1.20;;;9.40;99.90;;;;;;5071072;28;20094;-72
2023/04/15 04:17:42;;;;;;;4.07;1.37;;;9.40;99.90;;;;;;5067429;28;20028;-72
2023/04/15 04:20:08;;;;;;;6.13;0.90;;;9.50;99.90;;;;;;5070890;28;20035;-76
2023/04/15 04:22:38;;;;;;;2.42;1.02;;;9.50;99.90;;;;;;5069955;28;20016;-77
2023/04/15 04:25:05;;;;;;;2.13;0.90;;;9.50;99.90;;;;;;5069127;28;20063;-77
2023/04/15 04:27:30;;;;;;;;;;;9.50;99.90;;;;;;5067406;28;20021;-77
2023/04/15 04:29:56;;;;;;;4.35;0.90;;;9.60;99.90;;;;;;5069724;28;19981;-77
2023/04/15 04:32:21;;;;;;;1.53;0.87;;;9.50;99.90;;;;;;5069192;28;20082;-77
2023/04/15 04:34:47;;;;;;;2.93;0.80;;;9.50;99.90;;;;;;5071636;28;20032;-76
2023/04/15 04:37:13;;;;;;;2.13;1.20;;;9.50;99.90;;;;;;5053763;28;20032;-77
2023/04/15 04:39:39;;;;;;;4.50;1.00;;;9.50;99.90;;;;;;5066636;28;20487;-76
2023/04/15 04:42:05;;;;;;;4.13;1.08;;;9.30;99.90;;;;;;5067050;28;20032;-73
2023/04/15 04:44:31;;;;;;;3.85;1.00;;;9.20;99.90;;;;;;5070015;28;20058;-73
2023/04/15 04:46:57;;;;;;;1.07;0.77;;;9.20;99.90;;;;;;5066817;28;20032;-73
2023/04/15 04:49:22;;;;;;;3.40;1.00;;;9.20;99.90;;;;;;5069546;28;20609;-75
2023/04/15 04:51:48;;;;;;;3.17;1.10;;;9.20;99.90;;;;;;5050750;28;20027;-73
2023/04/15 04:54:13;;;;;;;4.17;1.30;;;9.30;99.90;;;;;;5068984;28;20387;-73
2023/04/15 04:56:39;;;;;;;2.70;1.23;;;9.30;99.90;;;;;;5067730;28;20100;-74
2023/04/15 04:59:05;;;;;;;3.77;0.93;;;9.30;99.90;;;;;;5069038;28;20310;-71
2023/04/15 05:01:31;;;;;;;;;;;9.20;99.90;;;;;;5046633;28;20530;-77
2023/04/15 05:03:57;;;;;;;4.15;1.42;;;9.40;99.90;;;;;;5066856;28;19916;-74
2023/04/15 05:06:22;;;;;;;2.10;1.00;;;9.50;99.90;;;;;;5064856;28;20028;-74
2023/04/15 05:08:48;;;;;;;2.50;1.00;;;9.40;99.90;;;;;;5066901;28;20578;-71
2023/04/15 05:11:14;;;;;;;2.33;0.70;;;9.40;99.90;;;;;;5059816;28;20036;-73
2023/04/15 05:13:40;;;;;;;5.30;0.90;;;9.40;99.90;;;;;;5072051;28;20297;-74
2023/04/15 05:16:06;;;;;;;1.57;0.70;;;9.50;99.90;;;;;;5069245;28;20029;-73
2023/04/15 05:18:32;;;;;;;2.70;0.95;;;9.50;99.90;;;;;;5070702;28;20392;-73
2023/04/15 05:20:58;;;;;;;3.72;0.85;;;9.50;99.90;;;;;;5071166;28;20077;-76
2023/04/15 05:23:24;;;;;;;3.67;1.00;;;9.50;99.90;;;;;;5069522;28;20399;-76
2023/04/15 05:25:50;;;;;;;2.95;1.13;;;9.50;99.90;;;;;;5051424;28;20035;-73
2023/04/15 05:28:15;;;;;;;3.70;1.00;;;9.50;99.90;;;;;;5070117;28;20028;-73
2023/04/15 05:30:41;;;;;;;2.80;1.67;;;9.50;99.90;;;;;;5074043;28;20376;-73
2023/04/15 05:33:07;;;;;;;1.20;0.90;;;9.50;99.90;;;;;;5069163;28;20028;-78
2023/04/15 05:35:33;;;;;;;2.20;1.20;;;9.40;99.90;;;;;;5072288;28;20119;-73
2023/04/15 05:37:58;;;;;;;7.93;1.77;;;9.50;99.90;;;;;;5065305;28;20032;-74
2023/04/15 05:40:24;;;;;;;1.63;0.93;;;9.60;99.90;;;;;;5073428;28;20407;-73
2023/04/15 05:42:50;;;;;;;1.00;0.80;;;9.60;99.90;;;;;;5074838;28;20355;-76
2023/04/15 05:45:15;;;;;;;2.87;0.80;;;9.60;99.90;;;;;;5069684;28;20043;-73
2023/04/15 05:47:41;;;;;;;4.07;1.10;;;9.80;99.90;;;;;;5068277;28;20033;-73
2023/04/15 05:50:07;;;;;;;4.53;1.23;;;9.90;99.90;;;;;;5071916;28;20033;-75
2023/04/15 05:52:32;;;;;;;3.27;1.87;;;9.80;99.90;;;;;;5078588;28;20025;-71
2023/04/15 05:54:58;;;;;;;1.10;0.80;;;10.00;99.90;;;;;;5085225;28;20333;-72
2023/04/15 05:57:24;;;;;;;1.83;0.77;;;10.10;99.90;;;;;;5078210;28;20538;-74
2023/04/15 05:59:51;;;;;;;4.23;0.90;;;10.10;99.90;;;;;;5071594;28;20093;-72
2023/04/15 06:02:17;;;;;;;1.10;0.70;;;10.10;99.90;;;;;;5070175;28;20060;-75
2023/04/15 06:04:43;;;;;;;6.23;0.80;;;10.20;99.90;;;;;;5069686;28;20098;-76
2023/04/15 06:07:08;;;;;;;1.00;0.60;;;10.20;99.90;;;;;;5071678;28;20271;-74
2023/04/15 06:09:35;;;;;;;1.85;0.80;;;10.20;99.90;;;;;;5042662;28;20044;-75
2023/04/15 06:12:01;;;;;;;1.80;0.90;;;10.30;99.90;;;;;;5074578;28;20442;-74
2023/04/15 06:14:26;;;;;;;2.33;0.90;;;10.20;99.90;;;;;;5068968;28;20032;-76
2023/04/15 06:16:52;;;;;;;2.00;0.93;;;10.20;99.90;;;;;;5068103;28;20032;-74
2023/04/15 06:19:18;;;;;;;5.00;1.60;;;10.20;99.90;;;;;;5068187;28;20044;-78
2023/04/15 06:21:44;;;;;;;1.70;1.20;;;10.20;99.90;;;;;;5051000;28;20024;-76
2023/04/15 06:24:11;;;;;;;2.83;1.15;;;10.00;99.90;;;;;;5067930;28;20028;-77
2023/04/15 06:26:36;;;;;;;3.28;1.80;;;10.00;99.90;;;;;;5068113;28;20032;-77
2023/04/15 06:29:02;;;;;;;13.17;2.80;;;9.90;99.90;;;;;;5037997;28;20029;-75
2023/04/15 06:31:28;;;;;;;2.93;2.00;;;9.90;99.90;;;;;;5063288;28;20044;-73
2023/04/15 06:33:53;;;;;;;2.90;1.70;;;9.90;99.90;;;;;;5065362;28;20029;-75
2023/04/15 06:36:19;;;;;;;3.03;1.87;;;9.90;99.90;;;;;;5067220;28;20111;-74
2023/04/15 06:38:45;;;;;;;4.47;1.50;;;9.90;99.90;;;;;;5066055;28;20059;-72
2023/04/15 06:41:11;;;;;;;2.10;1.50;;;9.90;99.90;;;;;;5065661;28;20036;-73
2023/04/15 06:43:37;;;;;;;2.23;1.50;;;9.80;99.90;;;;;;5066169;28;20028;-73
2023/04/15 06:46:02;;;;;;;1.73;1.30;;;9.90;99.90;;;;;;5067165;28;20035;-74
2023/04/15 06:48:28;;;;;;;5.00;1.70;;;10.00;99.90;;;;;;5052550;28;20032;-74
2023/04/15 06:50:54;;;;;;;4.43;1.37;;;10.20;99.90;;;;;;5068254;28;20439;-73
2023/04/15 06:53:20;;;;;;;3.00;1.60;;;10.50;99.90;;;;;;5069033;28;20036;-75
2023/04/15 06:55:45;;;;;;;3.28;1.48;;;10.70;99.90;;;;;;5065851;28;20614;-72
2023/04/15 06:58:11;;;;;;;3.80;1.30;;;10.70;99.90;;;;;;5035833;28;20037;-73
2023/04/15 07:00:38;;;;;;;3.37;1.73;;;10.60;99.90;;;;;;5070125;28;20020;-73
2023/04/15 07:03:03;;;;;;;;;;;10.40;99.90;;;;;;5051605;28;20039;-71
2023/04/15 07:05:31;;;;;;;2.67;1.17;;;10.40;99.90;;;;;;5068585;28;19999;-71
2023/04/15 07:07:57;;;;;;;3.88;0.88;;;10.40;99.90;;;;;;5070542;28;20040;-72
2023/04/15 07:10:22;;;;;;;2.43;1.07;;;10.50;99.90;;;;;;5066256;28;20105;-74
2023/04/15 07:12:49;;;;;;;3.80;1.08;;;10.40;99.90;;;;;;5068136;28;20290;-73
2023/04/15 07:15:15;;;;;;;2.30;0.73;;;10.50;99.90;;;;;;5066954;28;20032;-72
2023/04/15 07:17:42;;;;;;;3.40;0.90;;;10.40;99.90;;;;;;5071426;28;20032;-74
2023/04/15 07:20:08;;;;;;;2.63;1.00;;;10.40;99.90;;;;;;5064456;28;20136;-74
2023/04/15 07:22:34;;;;;;;2.83;0.75;;;10.40;99.90;;;;;;5060092;28;20388;-74
2023/04/15 07:25:00;;;;;;;4.53;0.88;;;10.30;99.90;;;;;;5061217;28;20407;-73
2023/04/15 07:27:26;;;;;;;2.42;0.85;;;10.20;99.90;;;;;;5058059;28;20021;-71
2023/04/15 07:29:52;;;;;;;3.53;0.80;;;10.20;99.90;;;;;;5061748;28;20037;-74
2023/04/15 07:32:18;;;;;;;1.95;1.15;;;10.20;99.90;;;;;;5046138;28;20052;-76
2023/04/15 07:34:44;;;;;;;3.60;1.20;;;10.10;99.90;;;;;;5061504;28;20060;-75
2023/04/15 07:37:09;;;;;;;5.73;1.00;;;10.30;99.90;;;;;;5060030;28;20186;-73
2023/04/15 07:39:36;;;;;;;2.23;0.90;;;10.30;99.90;;;;;;5058897;28;20032;-77
2023/04/15 07:42:02;;;;;;;2.00;0.80;;;10.60;99.90;;;;;;5060705;28;20025;-75
2023/04/15 07:44:29;;;;;;;3.17;1.25;;;11.10;99.90;;;;;;5076652;28;20333;-75
2023/04/15 07:46:55;;;;;;;1.30;0.80;;;11.20;99.90;;;;;;5079979;28;20028;-76
2023/04/15 07:49:21;;;;;;;0.82;0.70;;;10.90;99.90;;;;;;5073376;28;20025;-76
2023/04/15 07:51:47;;;;;;;2.63;0.90;;;10.70;99.90;;;;;;5059831;28;20040;-75
2023/04/15 07:54:13;;;;;;;2.78;1.10;;;10.60;99.90;;;;;;5058595;28;20044;-74
2023/04/15 07:56:40;;;;;;;2.55;0.90;;;10.60;99.90;;;;;;5049342;28;20032;-77
2023/04/15 07:59:06;;;;;;;2.90;0.70;;;10.50;99.90;;;;;;5059994;28;20032;-75
2023/04/15 08:01:32;;;;;;;1.73;0.80;;;10.50;99.90;;;;;;5045261;28;20028;-72
2023/04/15 08:03:58;;;;;;;2.55;0.90;;;10.60;99.90;;;;;;5045323;28;20099;-73
2023/04/15 08:06:24;;;;;;;1.95;0.77;;;10.50;99.90;;;;;;5044674;28;20032;-72
2023/04/15 08:08:50;;;;;;;6.30;1.30;;;10.40;99.90;;;;;;5066295;28;20044;-76
2023/04/15 08:11:16;;;;;;;3.15;1.40;;;10.40;99.90;;;;;;5064582;28;20028;-77
2023/04/15 08:13:42;;;;;;;3.13;1.20;;;10.40;99.90;;;;;;5066325;28;20052;-78
2023/04/15 08:16:23;;;;;;;1.98;0.93;;;10.60;99.90;;;;;;5064500;28;20032;-75
2023/04/15 08:18:50;;;;;;;2.53;0.82;;;10.70;99.90;;;;;;5060570;28;20086;-73
2023/04/15 08:21:17;;;;;;;4.00;1.40;;;10.80;99.90;;;;;;5061488;28;20024;-75
2023/04/15 08:23:44;;;;;;;6.55;1.10;;;10.80;99.90;;;;;;5068548;28;20027;-75
2023/04/15 08:26:10;;;;;;;;;;;10.70;99.90;;;;;;5070652;28;20021;-75
2023/04/15 08:28:38;;;;;;;2.40;0.80;;;10.60;99.90;;;;;;5068268;28;19908;-74
2023/04/15 08:31:04;;;;;;;1.58;0.77;;;10.40;99.90;;;;;;5065378;28;20052;-73
2023/04/15 08:33:29;;;;;;;4.40;0.77;;;10.40;99.90;;;;;;5067709;28;20075;-73
2023/04/15 08:35:55;;;;;;;2.20;0.67;;;10.30;99.90;;;;;;5069191;28;20032;-75
2023/04/15 08:38:21;;;;;;;3.15;0.57;;;10.20;99.90;;;;;;5067147;28;20060;-76
2023/04/15 08:40:47;;;;;;;1.67;0.55;;;10.20;99.90;;;;;;5065716;28;20391;-76
2023/04/15 08:43:20;;;;;;;2.13;0.70;;;10.20;99.90;;;;;;5067318;28;20032;-75
2023/04/15 08:45:48;;;;;;;1.35;0.63;;;10.50;99.90;;;;;;5068653;28;20032;-74
2023/04/15 08:48:17;;;;;;;0.95;0.50;;;10.90;99.90;;;;;;5072368;28;20022;-75
2023/04/15 08:50:43;;;;;;;0.85;0.40;;;11.10;99.90;;;;;;5066598;28;20032;-75
2023/04/15 08:53:10;;;;;;;1.00;0.70;;;11.30;99.90;;;;;;5069312;28;20028;-74
2023/04/15 08:55:46;;;;;;;1.73;0.68;;;11.50;99.90;;;;;;5071298;28;20047;-73
2023/04/15 08:58:13;;;;;;;1.40;0.52;;;11.40;99.90;;;;;;5066539;28;20032;-75
2023/04/15 09:00:40;;;;;;;2.10;0.70;;;11.20;99.90;;;;;;5067626;28;20035;-74
2023/04/15 09:03:06;;;;;;;2.47;0.60;;;10.80;99.90;;;;;;5060991;28;20446;-77
2023/04/15 09:05:32;;;;;;;;;;;10.60;99.90;;;;;;5069547;28;20033;-74
2023/04/15 09:07:59;;;;;;;2.67;0.60;;;10.60;99.90;;;;;;5067072;28;19935;-74
2023/04/15 09:10:24;;;;;;;3.50;0.70;;;10.50;99.90;;;;;;5052599;28;20052;-77
2023/04/15 09:12:50;;;;;;;1.57;0.60;;;10.50;99.90;;;;;;5067821;28;20071;-74
2023/04/15 09:15:16;;;;;;;1.27;0.65;;;10.70;99.90;;;;;;5067686;28;20116;-74
2023/04/15 09:17:43;;;;;;;1.65;0.45;;;11.20;99.90;;;;;;5068794;28;20142;-74
2023/04/15 09:20:12;;;;;;;1.08;0.50;;;11.70;99.90;;;;;;5067973;28;20033;-74
2023/04/15 09:22:39;;;;;;;4.43;1.40;;;12.00;99.90;;;;;;5069055;28;20060;-73
2023/04/15 09:25:14;;;;;;;2.05;0.77;;;11.80;99.90;;;;;;5049084;28;20438;-75
2023/04/15 09:28:00;;;;;;;1.38;0.70;;;11.80;99.90;;;;;;5067266;28;20020;-75
2023/04/15 09:30:28;;;;;;;1.17;0.75;;;11.80;99.90;;;;;;5068992;28;20396;-74
2023/04/15 09:33:00;;;;;;;1.17;0.60;;;12.00;99.90;;;;;;5082450;28;20080;-73
2023/04/15 09:35:27;;;;;;;2.28;1.00;;;12.40;99.90;;;;;;5091312;28;20040;-74
2023/04/15 09:38:00;;;;;;;4.75;0.93;;;12.40;99.90;;;;;;5075811;28;20020;-74
2023/04/15 09:40:36;;;;;;;3.05;0.65;;;12.40;99.90;;;;;;5067454;28;20052;-75
2023/04/15 09:43:04;;;;;;;1.93;0.70;;;12.20;99.90;;;;;;5073805;28;20125;-77
2023/04/15 09:45:30;;;;;;;1.20;0.63;;;12.00;99.90;;;;;;5071561;28;20409;-74
2023/04/15 09:47:58;;;;;;;1.05;0.55;;;11.80;99.90;;;;;;5069124;28;20032;-76
2023/04/15 09:50:28;;;;;;;1.02;0.50;;;11.70;99.90;;;;;;5068595;28;20032;-74
2023/04/15 09:52:54;;;;;;;1.00;0.50;;;11.60;99.90;;;;;;5068051;28;20033;-76
2023/04/15 09:55:19;;;;;;;1.63;0.50;;;11.60;99.90;;;;;;5072000;28;20044;-76
2023/04/15 09:57:48;;;;;;;1.87;0.90;;;11.80;99.90;;;;;;5069643;28;20392;-77
2023/04/15 10:00:14;;;;;;;1.77;0.55;;;11.90;99.90;;;;;;5053142;28;20047;-74
2023/04/15 10:02:43;;;;;;;1.42;0.50;;;11.90;99.90;;;;;;5067468;28;20020;-75
2023/04/15 10:05:12;;;;;;;0.55;0.52;;;11.90;99.90;;;;;;5071276;28;20032;-77
2023/04/15 10:07:40;;;;;;;1.75;0.88;;;12.10;99.90;;;;;;5072184;28;20033;-75
2023/04/15 10:10:06;;;;;;;2.05;0.40;;;12.30;99.90;;;;;;5063691;28;20029;-76
2023/04/15 10:12:32;;;;;;;1.30;0.88;;;12.70;99.90;;;;;;5070710;28;20108;-77
2023/04/15 10:15:02;;;;;;;2.30;0.95;;;13.00;99.90;;;;;;5068997;28;20040;-76
2023/04/15 10:17:32;;;;;;;1.83;0.50;;;12.80;99.80;;;;;;5072256;28;20056;-75
2023/04/15 10:20:01;;;;;;;0.90;0.50;;;12.60;98.30;;;;;;5069963;28;20438;-76
2023/04/15 10:22:27;;;;;;;1.90;0.60;;;12.20;99.90;;;;;;5069531;28;20020;-76
2023/04/15 10:24:54;;;;;;;;;;;11.80;99.90;;;;;;5071140;28;20032;-75
2023/04/15 10:27:21;;;;;;;0.73;0.60;;;11.70;99.90;;;;;;5073181;28;19918;-74
2023/04/15 10:29:48;;;;;;;1.45;0.77;;;11.60;99.90;;;;;;5053938;28;20029;-75
2023/04/15 10:32:14;;;;;;;0.57;0.57;;;11.60;99.90;;;;;;5068968;28;20768;-76
2023/04/15 10:34:41;;;;;;;1.15;0.50;;;11.50;99.90;;;;;;5070238;28;20048;-75
2023/04/15 10:37:09;;;;;;;1.88;0.80;;;11.60;99.90;;;;;;5074400;28;20056;-76
2023/04/15 10:39:36;;;;;;;0.50;0.50;;;11.70;99.90;;;;;;5052843;28;20123;-76
2023/04/15 10:42:12;;;;;;;3.65;0.90;;;11.80;99.90;;;;;;5069427;28;20036;-75
2023/04/15 10:44:40;;;;;;;2.20;0.43;;;11.80;99.90;;;;;;5070803;28;20036;-75
2023/04/15 10:47:14;;;;;;;0.50;0.40;;;11.40;99.90;;;;;;5061904;28;20123;-75
2023/04/15 10:49:44;;;;;;;0.80;0.40;;;11.40;99.90;;;;;;5074441;28;20078;-74
2023/04/15 10:52:10;;;;;;;2.63;0.60;;;11.50;99.90;;;;;;5065916;28;20055;-74
2023/04/15 10:54:38;;;;;;;2.25;0.80;;;11.50;99.90;;;;;;5053250;28;20044;-75
2023/04/15 10:57:03;;;;;;;1.23;0.52;;;11.40;99.90;;;;;;5069024;28;20453;-73
2023/04/15 10:59:30;;;;;;;0.80;0.60;;;11.20;99.90;;;;;;5069071;28;20098;-73
2023/04/15 11:02:00;;;;;;;0.85;0.73;;;11.20;99.90;;;;;;5076178;28;20051;-73
2023/04/15 11:04:52;;;;;;;2.25;0.70;;;11.00;99.90;;;;;;5071026;28;20033;-75
2023/04/15 11:07:42;;;;;;;0.90;0.40;;;11.00;99.90;;;;;;5072840;28;20028;-76
2023/04/15 11:10:17;;;;;;;1.17;0.60;;;11.00;99.90;;;;;;5071061;28;20107;-75
2023/04/15 11:12:57;;;;;;;1.48;0.60;;;11.30;99.90;;;;;;5068544;28;20103;-76
2023/04/15 11:15:35;;;;;;;0.63;0.50;;;11.20;99.90;;;;;;5070616;28;20037;-74
2023/04/15 11:18:12;;;;;;;4.25;0.80;;;11.50;99.90;;;;;;5070534;28;20503;-74
2023/04/15 11:20:40;;;;;;;2.75;0.93;;;12.00;99.90;;;;;;5077533;28;20046;-74
2023/04/15 11:23:07;;;;;;;0.40;0.38;;;12.80;99.90;;;;;;5071926;28;20043;-74
2023/04/15 11:25:36;;;;;;;4.13;0.47;;;13.10;99.90;;;;;;5051165;28;20564;-76
2023/04/15 11:28:03;;;;;;;0.93;0.60;;;13.00;99.90;;;;;;5073139;28;20571;-75
2023/04/15 11:30:34;;;;;;;0.80;0.40;;;13.20;99.90;;;;;;5066141;28;20031;-75
2023/04/15 11:33:02;;;;;;;0.40;0.40;;;13.70;99.90;;;;;;5067741;28;20158;-75
2023/04/15 11:35:28;;;;;;;4.05;0.50;;;13.30;99.90;;;;;;5072109;28;20040;-74
2023/04/15 11:37:54;;;;;;;0.65;0.50;;;12.60;99.90;;;;;;5069938;28;20032;-76
2023/04/15 11:40:28;;;;;;;0.93;0.57;;;12.50;99.90;;;;;;5068060;28;20086;-75
2023/04/15 11:43:04;;;;;;;3.15;0.60;;;12.20;99.90;;;;;;5066803;28;20024;-74
2023/04/15 11:45:30;;;;;;;3.22;0.57;;;11.80;99.90;;;;;;5069058;28;20033;-74
2023/04/15 11:48:08;;;;;;;2.10;0.90;;;12.10;99.90;;;;;;5067451;28;20035;-76
2023/04/15 11:50:35;;;;;;;0.63;0.60;;;12.20;99.90;;;;;;5066717;28;20396;-75
2023/04/15 11:53:03;;;;;;;0.52;0.50;;;12.00;99.90;;;;;;5067834;28;20380;-74
2023/04/15 11:55:29;;;;;;;1.27;0.50;;;11.70;99.90;;;;;;5071945;28;20447;-76
2023/04/15 11:58:12;;;;;;;0.65;0.57;;;11.40;99.90;;;;;;5068308;28;20017;-75
2023/04/15 12:00:39;;;;;;;0.50;0.43;;;11.60;99.90;;;;;;5068592;28;20044;-77
2023/04/15 12:03:35;;;;;;;1.20;0.52;;;12.50;99.90;;;;;;5069392;28;20033;-76
2023/04/15 12:06:18;;;;;;;4.93;0.82;;;13.10;99.90;;;;;;5067089;28;20043;-75
2023/04/15 12:09:00;;;;;;;1.42;0.50;;;13.10;99.90;;;;;;5071998;28;20024;-75
2023/04/15 12:11:26;;;;;;;1.73;0.75;;;12.90;99.90;;;;;;5067343;28;20017;-76
2023/04/15 12:13:59;;;;;;;1.87;0.57;;;12.90;99.90;;;;;;5067530;28;20070;-76
2023/04/15 12:16:26;;;;;;;6.50;1.55;;;12.30;99.90;;;;;;5068668;28;20024;-77
2023/04/15 12:18:57;;;;;;;0.60;0.38;;;12.00;99.90;;;;;;5062475;28;20105;-75
2023/04/15 12:21:24;;;;;;;1.17;0.60;;;11.90;99.90;;;;;;5077072;28;20844;-77
2023/04/15 12:23:51;;;;;;;1.08;0.40;;;12.00;99.90;;;;;;5070300;28;20024;-75
2023/04/15 12:26:24;;;;;;;1.45;0.50;;;12.10;99.90;;;;;;5068958;28;20020;-76
2023/04/15 12:29:02;;;;;;;0.75;0.55;;;12.40;99.90;;;;;;5068324;28;20580;-77
2023/04/15 12:31:28;;;;;;;1.05;0.50;;;12.50;99.90;;;;;;5069368;28;20070;-76
2023/04/15 12:33:58;;;;;;;0.40;0.40;;;12.30;99.90;;;;;;5065462;28;20486;-76
2023/04/15 12:36:23;;;;;;;1.08;0.60;;;12.00;99.90;;;;;;5071920;28;20051;-75
2023/04/15 12:38:49;;;;;;;1.03;0.67;;;12.00;99.90;;;;;;5069174;28;20723;-76
2023/04/15 12:41:15;;;;;;;0.95;0.50;;;12.00;99.90;;;;;;5052507;28;20793;-76
2023/04/15 12:43:43;;;;;;;0.40;0.30;;;11.70;99.90;;;;;;5068140;28;20116;-76
2023/04/15 12:46:09;;;;;;;0.50;0.50;;;11.60;99.90;;;;;;5071626;28;20063;-76
2023/04/15 12:48:35;;;;;;;3.17;0.52;;;11.70;99.90;;;;;;5068984;28;20033;-76
2023/04/15 12:51:00;;;;;;;0.88;0.40;;;11.40;99.90;;;;;;5051480;28;20090;-76
2023/04/15 12:53:27;;;;;;;0.50;0.40;;;11.30;99.90;;;;;;5069393;28;20111;-76